sensor_id;sensor_type;location;lat;lon;timestamp;pressure;altitude;pressure_sealevel;temperature;humidity
65013;BME280;51715;39.432;-77.518;2023-02-28T00:01:35;98377.99;;;6.47;53.29
65013;BME280;51715;39.432;-77.518;2023-02-28T00:04:03;98374.76;;;6.72;53.21
65013;BME280;51715;39.432;-77.518;2023-02-28T00:06:31;98385.21;;;6.37;53.28
65013;BME280;51715;39.432;-77.518;2023-02-28T00:09:00;98384.26;;;6.65;53.41
65013;BME280;51715;39.432;-77.518;2023-02-28T00:11:29;98368.59;;;6.79;52.62
65013;BME280;51715;39.432;-77.518;2023-02-28T00:13:57;98338.05;;;6.11;54.35
65013;BME280;51715;39.432;-77.518;2023-02-28T00:16:26;98322.39;;;4.69;58.29
65013;BME280;51715;39.432;-77.518;2023-02-28T00:18:55;98307.56;;;4.45;58.56
65013;BME280;51715;39.432;-77.518;2023-02-28T00:21:23;98291.32;;;3.95;60.87
65013;BME280;51715;39.432;-77.518;2023-02-28T00:23:51;98263.75;;;3.21;64.98
65013;BME280;51715;39.432;-77.518;2023-02-28T00:26:20;98309.95;;;3.21;64.17
65013;BME280;51715;39.432;-77.518;2023-02-28T00:28:48;98297.89;;;3.20;65.06
65013;BME280;51715;39.432;-77.518;2023-02-28T00:31:17;98273.69;;;3.80;62.65
65013;BME280;51715;39.432;-77.518;2023-02-28T00:33:46;98225.81;;;3.78;63.10
65013;BME280;51715;39.432;-77.518;2023-02-28T00:36:16;98205.24;;;2.94;63.61
65013;BME280;51715;39.432;-77.518;2023-02-28T00:38:44;98200.77;;;3.25;64.28
65013;BME280;51715;39.432;-77.518;2023-02-28T00:41:12;98192.68;;;3.07;64.29
65013;BME280;51715;39.432;-77.518;2023-02-28T00:43:42;98192.90;;;3.52;64.68
65013;BME280;51715;39.432;-77.518;2023-02-28T00:46:10;98199.76;;;3.43;65.06
65013;BME280;51715;39.432;-77.518;2023-02-28T00:48:38;98195.63;;;3.17;64.44
65013;BME280;51715;39.432;-77.518;2023-02-28T00:51:07;98183.12;;;2.81;65.46
65013;BME280;51715;39.432;-77.518;2023-02-28T00:53:35;98165.72;;;3.51;62.59
65013;BME280;51715;39.432;-77.518;2023-02-28T00:56:04;98138.34;;;3.26;63.31
65013;BME280;51715;39.432;-77.518;2023-02-28T00:58:32;98157.33;;;3.70;62.37
65013;BME280;51715;39.432;-77.518;2023-02-28T01:01:02;98166.64;;;3.52;60.81
65013;BME280;51715;39.432;-77.518;2023-02-28T01:03:30;98160.69;;;3.97;60.38
65013;BME280;51715;39.432;-77.518;2023-02-28T01:05:58;98152.30;;;3.85;60.85
65013;BME280;51715;39.432;-77.518;2023-02-28T01:08:28;98133.25;;;3.33;61.87
65013;BME280;51715;39.432;-77.518;2023-02-28T01:11:11;98137.58;;;2.82;63.24
65013;BME280;51715;39.432;-77.518;2023-02-28T01:13:39;98135.15;;;3.60;61.73
65013;BME280;51715;39.432;-77.518;2023-02-28T01:16:09;98126.74;;;3.34;61.70
65013;BME280;51715;39.432;-77.518;2023-02-28T01:18:39;98121.94;;;3.63;60.71
65013;BME280;51715;39.432;-77.518;2023-02-28T01:21:10;98127.99;;;3.59;61.40
65013;BME280;51715;39.432;-77.518;2023-02-28T01:23:40;98123.11;;;3.66;61.76
65013;BME280;51715;39.432;-77.518;2023-02-28T01:26:12;98110.52;;;3.81;61.99
65013;BME280;51715;39.432;-77.518;2023-02-28T01:28:41;98103.78;;;3.18;63.44
65013;BME280;51715;39.432;-77.518;2023-02-28T01:31:10;98102.74;;;2.40;64.23
65013;BME280;51715;39.432;-77.518;2023-02-28T01:33:40;98114.72;;;3.40;62.87
65013;BME280;51715;39.432;-77.518;2023-02-28T01:36:12;98132.60;;;3.09;63.22
65013;BME280;51715;39.432;-77.518;2023-02-28T01:38:41;98132.64;;;3.29;61.93
65013;BME280;51715;39.432;-77.518;2023-02-28T01:41:15;98124.61;;;3.22;61.49
65013;BME280;51715;39.432;-77.518;2023-02-28T01:44:03;98118.84;;;2.61;63.30
65013;BME280;51715;39.432;-77.518;2023-02-28T01:46:32;98096.30;;;3.04;62.61
65013;BME280;51715;39.432;-77.518;2023-02-28T01:49:07;98089.29;;;3.16;62.79
65013;BME280;51715;39.432;-77.518;2023-02-28T01:51:40;98065.28;;;2.80;64.19
65013;BME280;51715;39.432;-77.518;2023-02-28T01:54:12;98056.38;;;2.36;63.79
65013;BME280;51715;39.432;-77.518;2023-02-28T01:56:53;98056.94;;;2.99;62.02
65013;BME280;51715;39.432;-77.518;2023-02-28T01:59:27;98051.08;;;2.74;63.59
65013;BME280;51715;39.432;-77.518;2023-02-28T02:01:58;98063.37;;;2.38;64.73
65013;BME280;51715;39.432;-77.518;2023-02-28T02:04:36;98058.26;;;2.46;65.39
65013;BME280;51715;39.432;-77.518;2023-02-28T02:07:08;98057.40;;;2.19;66.27
65013;BME280;51715;39.432;-77.518;2023-02-28T02:09:37;98050.45;;;3.10;63.20
65013;BME280;51715;39.432;-77.518;2023-02-28T02:12:15;98042.96;;;2.80;63.81
65013;BME280;51715;39.432;-77.518;2023-02-28T02:15:01;98022.46;;;2.73;63.34
65013;BME280;51715;39.432;-77.518;2023-02-28T02:17:36;98030.14;;;2.94;63.78
65013;BME280;51715;39.432;-77.518;2023-02-28T02:20:51;98016.78;;;3.01;63.44
65013;BME280;51715;39.432;-77.518;2023-02-28T02:23:40;98011.43;;;2.54;64.38
65013;BME280;51715;39.432;-77.518;2023-02-28T02:26:42;98007.62;;;2.81;64.30
65013;BME280;51715;39.432;-77.518;2023-02-28T02:29:26;97992.69;;;2.94;63.00
65013;BME280;51715;39.432;-77.518;2023-02-28T02:32:17;98005.37;;;2.56;64.66
65013;BME280;51715;39.432;-77.518;2023-02-28T02:34:58;97978.71;;;2.83;64.36
65013;BME280;51715;39.432;-77.518;2023-02-28T02:37:36;97974.48;;;2.85;64.80
65013;BME280;51715;39.432;-77.518;2023-02-28T02:40:13;97990.38;;;2.33;65.07
65013;BME280;51715;39.432;-77.518;2023-02-28T02:42:49;97987.48;;;1.27;69.46
65013;BME280;51715;39.432;-77.518;2023-02-28T02:45:22;97946.37;;;1.84;68.28
65013;BME280;51715;39.432;-77.518;2023-02-28T02:47:55;97938.82;;;2.00;68.47
65013;BME280;51715;39.432;-77.518;2023-02-28T02:50:29;97960.85;;;2.97;65.04
65013;BME280;51715;39.432;-77.518;2023-02-28T02:53:01;97974.74;;;2.50;64.54
65013;BME280;51715;39.432;-77.518;2023-02-28T02:55:33;97965.82;;;2.06;67.03
65013;BME280;51715;39.432;-77.518;2023-02-28T02:58:05;97950.85;;;2.84;64.32
65013;BME280;51715;39.432;-77.518;2023-02-28T03:00:39;97961.78;;;2.09;67.33
65013;BME280;51715;39.432;-77.518;2023-02-28T03:03:10;97969.05;;;2.12;68.05
65013;BME280;51715;39.432;-77.518;2023-02-28T03:05:44;97966.22;;;2.15;67.39
65013;BME280;51715;39.432;-77.518;2023-02-28T03:08:15;97965.99;;;1.76;69.03
65013;BME280;51715;39.432;-77.518;2023-02-28T03:10:45;97972.37;;;1.63;69.74
65013;BME280;51715;39.432;-77.518;2023-02-28T03:14:37;98024.93;;;3.08;64.30
65013;BME280;51715;39.432;-77.518;2023-02-28T03:17:18;98199.85;;;4.83;58.68
65013;BME280;51715;39.432;-77.518;2023-02-28T03:19:58;98203.19;;;5.08;57.27
65013;BME280;51715;39.432;-77.518;2023-02-28T03:22:49;98162.55;;;6.57;54.07
65013;BME280;51715;39.432;-77.518;2023-02-28T03:25:27;98144.39;;;6.61;53.73
65013;BME280;51715;39.432;-77.518;2023-02-28T03:28:07;98154.64;;;7.35;51.63
65013;BME280;51715;39.432;-77.518;2023-02-28T03:30:41;98144.25;;;7.47;50.89
65013;BME280;51715;39.432;-77.518;2023-02-28T03:33:17;98122.19;;;6.89;51.58
65013;BME280;51715;39.432;-77.518;2023-02-28T03:35:52;98113.60;;;7.64;50.19
65013;BME280;51715;39.432;-77.518;2023-02-28T03:38:29;98116.23;;;7.45;49.68
65013;BME280;51715;39.432;-77.518;2023-02-28T03:41:04;98108.07;;;7.53;50.09
65013;BME280;51715;39.432;-77.518;2023-02-28T03:43:35;98097.69;;;7.45;49.77
65013;BME280;51715;39.432;-77.518;2023-02-28T03:46:10;98076.71;;;6.81;50.84
65013;BME280;51715;39.432;-77.518;2023-02-28T03:48:44;98038.10;;;7.32;50.06
65013;BME280;51715;39.432;-77.518;2023-02-28T03:51:16;98033.05;;;7.35;49.72
65013;BME280;51715;39.432;-77.518;2023-02-28T03:53:47;98035.36;;;5.48;53.89
65013;BME280;51715;39.432;-77.518;2023-02-28T03:56:21;98030.39;;;4.74;56.33
65013;BME280;51715;39.432;-77.518;2023-02-28T03:58:58;98028.81;;;3.69;60.22
65013;BME280;51715;39.432;-77.518;2023-02-28T04:01:33;98009.71;;;4.81;57.52
65013;BME280;51715;39.432;-77.518;2023-02-28T04:04:03;97992.26;;;4.42;58.93
65013;BME280;51715;39.432;-77.518;2023-02-28T04:06:32;97972.58;;;4.67;58.45
65013;BME280;51715;39.432;-77.518;2023-02-28T04:09:01;97966.80;;;4.43;58.34
65013;BME280;51715;39.432;-77.518;2023-02-28T04:11:33;97960.98;;;4.70;57.17
65013;BME280;51715;39.432;-77.518;2023-02-28T04:14:02;97946.95;;;4.97;55.94
65013;BME280;51715;39.432;-77.518;2023-02-28T04:16:31;97951.47;;;4.03;59.43
65013;BME280;51715;39.432;-77.518;2023-02-28T04:19:01;97954.30;;;3.81;59.69
65013;BME280;51715;39.432;-77.518;2023-02-28T04:21:30;97947.92;;;4.62;58.16
65013;BME280;51715;39.432;-77.518;2023-02-28T04:23:58;97941.02;;;5.19;57.05
65013;BME280;51715;39.432;-77.518;2023-02-28T04:26:29;97939.19;;;4.13;59.63
65013;BME280;51715;39.432;-77.518;2023-02-28T04:28:59;97943.71;;;4.50;58.83
65013;BME280;51715;39.432;-77.518;2023-02-28T04:31:27;97938.69;;;5.15;56.14
65013;BME280;51715;39.432;-77.518;2023-02-28T04:33:55;97935.60;;;4.72;56.41
65013;BME280;51715;39.432;-77.518;2023-02-28T04:36:23;97928.88;;;4.67;57.10
65013;BME280;51715;39.432;-77.518;2023-02-28T04:38:52;97912.08;;;5.21;55.78
65013;BME280;51715;39.432;-77.518;2023-02-28T04:41:21;97908.72;;;4.93;55.34
65013;BME280;51715;39.432;-77.518;2023-02-28T04:43:51;97894.35;;;5.65;54.78
65013;BME280;51715;39.432;-77.518;2023-02-28T04:46:21;97884.68;;;5.44;54.97
65013;BME280;51715;39.432;-77.518;2023-02-28T04:48:50;97887.81;;;5.77;53.93
65013;BME280;51715;39.432;-77.518;2023-02-28T04:51:19;97883.89;;;6.37;52.38
65013;BME280;51715;39.432;-77.518;2023-02-28T04:53:47;97874.09;;;6.02;53.35
65013;BME280;51715;39.432;-77.518;2023-02-28T04:56:17;97873.58;;;6.47;52.04
65013;BME280;51715;39.432;-77.518;2023-02-28T04:58:46;97870.25;;;5.00;55.24
65013;BME280;51715;39.432;-77.518;2023-02-28T05:04:05;97847.28;;;4.82;54.35
65013;BME280;51715;39.432;-77.518;2023-02-28T05:06:34;97850.26;;;5.52;53.44
65013;BME280;51715;39.432;-77.518;2023-02-28T05:09:02;97851.34;;;5.06;54.76
65013;BME280;51715;39.432;-77.518;2023-02-28T05:11:32;97855.58;;;6.16;52.77
65013;BME280;51715;39.432;-77.518;2023-02-28T05:14:01;97867.23;;;6.94;51.60
65013;BME280;51715;39.432;-77.518;2023-02-28T05:16:31;97883.93;;;7.06;51.30
65013;BME280;51715;39.432;-77.518;2023-02-28T05:19:00;97888.09;;;6.64;51.18
65013;BME280;51715;39.432;-77.518;2023-02-28T05:21:31;97897.53;;;6.87;51.36
65013;BME280;51715;39.432;-77.518;2023-02-28T05:24:00;97901.51;;;6.60;51.35
65013;BME280;51715;39.432;-77.518;2023-02-28T05:26:30;97915.73;;;6.79;50.86
65013;BME280;51715;39.432;-77.518;2023-02-28T05:28:59;97915.38;;;7.48;49.86
65013;BME280;51715;39.432;-77.518;2023-02-28T05:31:28;97892.66;;;7.30;50.02
65013;BME280;51715;39.432;-77.518;2023-02-28T05:33:57;97890.13;;;7.35;49.97
65013;BME280;51715;39.432;-77.518;2023-02-28T05:36:25;97876.75;;;7.44;49.46
65013;BME280;51715;39.432;-77.518;2023-02-28T05:38:53;97877.85;;;7.48;48.61
65013;BME280;51715;39.432;-77.518;2023-02-28T05:41:22;97876.50;;;7.63;49.12
65013;BME280;51715;39.432;-77.518;2023-02-28T05:43:51;97874.36;;;8.17;48.49
65013;BME280;51715;39.432;-77.518;2023-02-28T05:46:19;97862.50;;;7.97;48.51
65013;BME280;51715;39.432;-77.518;2023-02-28T05:48:48;97870.80;;;8.09;48.03
65013;BME280;51715;39.432;-77.518;2023-02-28T05:51:17;97876.98;;;8.28;47.78
65013;BME280;51715;39.432;-77.518;2023-02-28T05:53:45;97893.21;;;8.08;47.76
65013;BME280;51715;39.432;-77.518;2023-02-28T05:56:14;97895.07;;;7.99;47.98
65013;BME280;51715;39.432;-77.518;2023-02-28T05:58:43;97896.39;;;8.24;47.75
65013;BME280;51715;39.432;-77.518;2023-02-28T06:01:33;97890.73;;;8.38;47.61
65013;BME280;51715;39.432;-77.518;2023-02-28T06:04:03;97910.72;;;8.57;47.27
65013;BME280;51715;39.432;-77.518;2023-02-28T06:06:31;97909.62;;;8.34;47.05
65013;BME280;51715;39.432;-77.518;2023-02-28T06:08:59;97894.37;;;7.23;49.73
65013;BME280;51715;39.432;-77.518;2023-02-28T06:11:28;97900.79;;;7.35;49.08
65013;BME280;51715;39.432;-77.518;2023-02-28T06:13:57;97890.56;;;7.93;48.36
65013;BME280;51715;39.432;-77.518;2023-02-28T06:16:27;97873.12;;;8.45;47.71
65013;BME280;51715;39.432;-77.518;2023-02-28T06:18:57;97860.04;;;7.76;49.08
65013;BME280;51715;39.432;-77.518;2023-02-28T06:21:27;97858.42;;;7.88;48.70
65013;BME280;51715;39.432;-77.518;2023-02-28T06:23:56;97860.40;;;7.77;49.09
65013;BME280;51715;39.432;-77.518;2023-02-28T06:26:25;97854.26;;;8.10;48.61
65013;BME280;51715;39.432;-77.518;2023-02-28T06:28:54;97863.84;;;8.03;48.37
65013;BME280;51715;39.432;-77.518;2023-02-28T06:31:23;97848.01;;;8.24;47.79
65013;BME280;51715;39.432;-77.518;2023-02-28T06:33:52;97854.76;;;8.48;47.45
65013;BME280;51715;39.432;-77.518;2023-02-28T06:36:20;97844.97;;;8.21;47.29
65013;BME280;51715;39.432;-77.518;2023-02-28T06:38:48;97847.68;;;8.41;48.23
65013;BME280;51715;39.432;-77.518;2023-02-28T06:41:16;97839.51;;;8.43;47.56
65013;BME280;51715;39.432;-77.518;2023-02-28T06:43:44;97821.37;;;8.35;47.40
65013;BME280;51715;39.432;-77.518;2023-02-28T06:46:14;97834.26;;;8.48;46.93
65013;BME280;51715;39.432;-77.518;2023-02-28T06:48:44;97823.95;;;7.89;48.27
65013;BME280;51715;39.432;-77.518;2023-02-28T06:51:15;97833.73;;;7.27;49.15
65013;BME280;51715;39.432;-77.518;2023-02-28T06:53:43;97840.10;;;7.85;47.95
65013;BME280;51715;39.432;-77.518;2023-02-28T06:56:14;97857.75;;;8.38;47.24
65013;BME280;51715;39.432;-77.518;2023-02-28T06:58:47;97865.16;;;8.66;46.49
65013;BME280;51715;39.432;-77.518;2023-02-28T07:01:16;97884.18;;;9.04;46.30
65013;BME280;51715;39.432;-77.518;2023-02-28T07:03:45;97883.35;;;8.07;48.11
65013;BME280;51715;39.432;-77.518;2023-02-28T07:06:13;97864.48;;;7.95;47.65
65013;BME280;51715;39.432;-77.518;2023-02-28T07:08:41;97862.12;;;8.21;47.13
65013;BME280;51715;39.432;-77.518;2023-02-28T07:11:09;97872.36;;;8.33;47.47
65013;BME280;51715;39.432;-77.518;2023-02-28T07:13:38;97873.72;;;8.96;47.15
65013;BME280;51715;39.432;-77.518;2023-02-28T07:16:09;97869.58;;;8.28;47.71
65013;BME280;51715;39.432;-77.518;2023-02-28T07:18:38;97878.40;;;8.79;47.20
65013;BME280;51715;39.432;-77.518;2023-02-28T07:21:11;97871.89;;;9.04;46.70
65013;BME280;51715;39.432;-77.518;2023-02-28T07:23:40;97856.84;;;8.92;46.68
65013;BME280;51715;39.432;-77.518;2023-02-28T07:26:12;97878.41;;;8.89;46.53
65013;BME280;51715;39.432;-77.518;2023-02-28T07:28:40;97857.54;;;7.99;47.54
65013;BME280;51715;39.432;-77.518;2023-02-28T07:31:11;97869.60;;;8.46;47.58
65013;BME280;51715;39.432;-77.518;2023-02-28T07:33:39;97862.28;;;8.91;46.95
65013;BME280;51715;39.432;-77.518;2023-02-28T07:36:09;97876.79;;;7.92;47.86
65013;BME280;51715;39.432;-77.518;2023-02-28T07:38:38;97879.85;;;8.41;47.67
65013;BME280;51715;39.432;-77.518;2023-02-28T07:41:06;97863.34;;;8.68;47.16
65013;BME280;51715;39.432;-77.518;2023-02-28T07:43:34;97867.62;;;8.99;46.53
65013;BME280;51715;39.432;-77.518;2023-02-28T07:46:04;97877.74;;;9.32;46.20
65013;BME280;51715;39.432;-77.518;2023-02-28T07:48:33;97878.43;;;9.19;45.88
65013;BME280;51715;39.432;-77.518;2023-02-28T07:51:03;97870.79;;;8.10;47.17
65013;BME280;51715;39.432;-77.518;2023-02-28T07:53:31;97868.71;;;7.94;47.58
65013;BME280;51715;39.432;-77.518;2023-02-28T07:56:00;97878.30;;;8.39;47.31
65013;BME280;51715;39.432;-77.518;2023-02-28T07:58:29;97880.62;;;8.74;46.90
65013;BME280;51715;39.432;-77.518;2023-02-28T08:01:05;97874.73;;;8.97;46.38
65013;BME280;51715;39.432;-77.518;2023-02-28T08:03:34;97872.33;;;9.01;46.15
65013;BME280;51715;39.432;-77.518;2023-02-28T08:06:04;97882.41;;;7.70;47.96
65013;BME280;51715;39.432;-77.518;2023-02-28T08:08:31;97876.64;;;7.54;49.15
65013;BME280;51715;39.432;-77.518;2023-02-28T08:11:01;97875.77;;;8.31;47.58
65013;BME280;51715;39.432;-77.518;2023-02-28T08:13:30;97874.59;;;8.38;47.39
65013;BME280;51715;39.432;-77.518;2023-02-28T08:16:02;97872.36;;;8.55;46.90
65013;BME280;51715;39.432;-77.518;2023-02-28T08:18:30;97866.60;;;8.63;46.16
65013;BME280;51715;39.432;-77.518;2023-02-28T08:20:58;97876.84;;;8.44;46.66
65013;BME280;51715;39.432;-77.518;2023-02-28T08:23:26;97875.54;;;8.94;46.20
65013;BME280;51715;39.432;-77.518;2023-02-28T08:25:55;97875.23;;;8.58;46.73
65013;BME280;51715;39.432;-77.518;2023-02-28T08:28:24;97863.68;;;8.97;46.35
65013;BME280;51715;39.432;-77.518;2023-02-28T08:30:52;97864.14;;;8.44;46.95
65013;BME280;51715;39.432;-77.518;2023-02-28T08:33:20;97874.26;;;8.49;46.67
65013;BME280;51715;39.432;-77.518;2023-02-28T08:35:48;97872.60;;;8.66;46.49
65013;BME280;51715;39.432;-77.518;2023-02-28T08:38:15;97873.83;;;8.84;46.26
65013;BME280;51715;39.432;-77.518;2023-02-28T08:40:44;97885.95;;;9.27;46.04
65013;BME280;51715;39.432;-77.518;2023-02-28T08:43:12;97895.29;;;9.23;45.84
65013;BME280;51715;39.432;-77.518;2023-02-28T08:45:40;97901.57;;;9.04;45.69
65013;BME280;51715;39.432;-77.518;2023-02-28T08:48:08;97901.64;;;9.09;45.90
65013;BME280;51715;39.432;-77.518;2023-02-28T08:50:36;97900.81;;;9.12;45.86
65013;BME280;51715;39.432;-77.518;2023-02-28T08:53:06;97895.98;;;9.22;45.93
65013;BME280;51715;39.432;-77.518;2023-02-28T08:55:34;97898.30;;;8.81;46.24
65013;BME280;51715;39.432;-77.518;2023-02-28T08:58:03;97898.55;;;8.90;46.25
65013;BME280;51715;39.432;-77.518;2023-02-28T09:00:31;97902.83;;;8.62;46.31
65013;BME280;51715;39.432;-77.518;2023-02-28T09:02:59;97903.52;;;8.90;46.11
65013;BME280;51715;39.432;-77.518;2023-02-28T09:05:26;97911.34;;;8.77;45.85
65013;BME280;51715;39.432;-77.518;2023-02-28T09:07:55;97921.65;;;8.80;45.94
65013;BME280;51715;39.432;-77.518;2023-02-28T09:10:23;97919.29;;;8.74;45.79
65013;BME280;51715;39.432;-77.518;2023-02-28T09:12:51;97922.64;;;8.85;45.43
65013;BME280;51715;39.432;-77.518;2023-02-28T09:15:20;97930.71;;;8.77;45.42
65013;BME280;51715;39.432;-77.518;2023-02-28T09:17:48;97939.40;;;8.71;45.52
65013;BME280;51715;39.432;-77.518;2023-02-28T09:20:17;97943.32;;;9.04;45.22
65013;BME280;51715;39.432;-77.518;2023-02-28T09:22:46;97943.94;;;8.80;45.85
65013;BME280;51715;39.432;-77.518;2023-02-28T09:25:13;97951.32;;;8.49;45.92
65013;BME280;51715;39.432;-77.518;2023-02-28T09:27:41;97952.12;;;8.00;47.03
65013;BME280;51715;39.432;-77.518;2023-02-28T09:30:11;97951.39;;;8.20;47.00
65013;BME280;51715;39.432;-77.518;2023-02-28T09:32:40;97948.10;;;6.55;51.12
65013;BME280;51715;39.432;-77.518;2023-02-28T09:35:08;97951.08;;;7.21;50.35
65013;BME280;51715;39.432;-77.518;2023-02-28T09:37:37;97938.32;;;7.20;49.55
65013;BME280;51715;39.432;-77.518;2023-02-28T09:40:08;97944.70;;;7.43;49.24
65013;BME280;51715;39.432;-77.518;2023-02-28T09:42:38;97945.63;;;7.69;48.36
65013;BME280;51715;39.432;-77.518;2023-02-28T09:45:13;97950.40;;;7.90;47.96
65013;BME280;51715;39.432;-77.518;2023-02-28T09:47:47;97960.86;;;8.20;47.54
65013;BME280;51715;39.432;-77.518;2023-02-28T09:50:23;97963.00;;;8.02;47.70
65013;BME280;51715;39.432;-77.518;2023-02-28T09:52:57;97961.75;;;8.02;47.46
65013;BME280;51715;39.432;-77.518;2023-02-28T09:55:30;97971.67;;;8.26;47.17
65013;BME280;51715;39.432;-77.518;2023-02-28T09:58:02;97977.62;;;8.55;46.71
65013;BME280;51715;39.432;-77.518;2023-02-28T10:00:33;97974.76;;;8.62;46.55
65013;BME280;51715;39.432;-77.518;2023-02-28T10:03:24;97982.04;;;8.31;46.22
65013;BME280;51715;39.432;-77.518;2023-02-28T10:05:58;97991.60;;;8.27;46.56
65013;BME280;51715;39.432;-77.518;2023-02-28T10:08:33;97989.92;;;7.51;48.21
65013;BME280;51715;39.432;-77.518;2023-02-28T10:11:07;97996.37;;;7.42;48.49
65013;BME280;51715;39.432;-77.518;2023-02-28T10:13:52;98007.12;;;6.44;50.27
65013;BME280;51715;39.432;-77.518;2023-02-28T10:16:26;98009.54;;;6.84;49.92
65013;BME280;51715;39.432;-77.518;2023-02-28T10:18:59;98001.29;;;7.00;49.13
65013;BME280;51715;39.432;-77.518;2023-02-28T10:21:38;98004.99;;;6.84;49.45
65013;BME280;51715;39.432;-77.518;2023-02-28T10:24:20;98006.86;;;7.54;48.66
65013;BME280;51715;39.432;-77.518;2023-02-28T10:26:53;98008.38;;;7.75;47.93
65013;BME280;51715;39.432;-77.518;2023-02-28T10:29:24;98007.92;;;7.76;48.37
65013;BME280;51715;39.432;-77.518;2023-02-28T10:31:52;98010.96;;;7.18;48.75
65013;BME280;51715;39.432;-77.518;2023-02-28T10:34:20;98024.60;;;7.80;48.43
65013;BME280;51715;39.432;-77.518;2023-02-28T10:36:50;98032.95;;;7.67;47.69
65013;BME280;51715;39.432;-77.518;2023-02-28T10:39:38;98036.49;;;8.41;46.75
65013;BME280;51715;39.432;-77.518;2023-02-28T10:42:20;98046.31;;;7.11;48.45
65013;BME280;51715;39.432;-77.518;2023-02-28T10:44:48;98046.93;;;6.86;48.90
65013;BME280;51715;39.432;-77.518;2023-02-28T10:47:17;98058.16;;;7.18;48.91
65013;BME280;51715;39.432;-77.518;2023-02-28T10:49:49;98065.35;;;6.78;49.48
65013;BME280;51715;39.432;-77.518;2023-02-28T10:52:33;98068.14;;;6.60;49.02
65013;BME280;51715;39.432;-77.518;2023-02-28T10:55:20;98073.95;;;7.12;48.78
65013;BME280;51715;39.432;-77.518;2023-02-28T10:57:50;98087.96;;;7.19;48.98
65013;BME280;51715;39.432;-77.518;2023-02-28T11:00:21;98087.22;;;6.31;50.69
65013;BME280;51715;39.432;-77.518;2023-02-28T11:02:50;98093.49;;;6.14;50.84
65013;BME280;51715;39.432;-77.518;2023-02-28T11:05:28;98102.03;;;6.72;49.93
65013;BME280;51715;39.432;-77.518;2023-02-28T11:08:03;98102.26;;;5.82;51.29
65013;BME280;51715;39.432;-77.518;2023-02-28T11:10:33;98102.51;;;6.90;49.80
65013;BME280;51715;39.432;-77.518;2023-02-28T11:13:02;98110.96;;;6.79;50.06
65013;BME280;51715;39.432;-77.518;2023-02-28T11:15:32;98128.01;;;6.63;49.58
65013;BME280;51715;39.432;-77.518;2023-02-28T11:18:06;98137.68;;;7.36;48.75
65013;BME280;51715;39.432;-77.518;2023-02-28T11:20:42;98131.78;;;6.85;49.27
65013;BME280;51715;39.432;-77.518;2023-02-28T11:23:16;98135.58;;;7.19;48.77
65013;BME280;51715;39.432;-77.518;2023-02-28T11:25:49;98154.76;;;7.01;49.17
65013;BME280;51715;39.432;-77.518;2023-02-28T11:28:28;98158.81;;;6.72;49.23
65013;BME280;51715;39.432;-77.518;2023-02-28T11:31:18;98157.84;;;6.09;51.07
65013;BME280;51715;39.432;-77.518;2023-02-28T11:33:48;98179.18;;;7.06;49.55
65013;BME280;51715;39.432;-77.518;2023-02-28T11:36:19;98182.86;;;6.20;50.88
65013;BME280;51715;39.432;-77.518;2023-02-28T11:38:48;98197.14;;;6.46;51.15
65013;BME280;51715;39.432;-77.518;2023-02-28T11:41:35;98202.07;;;6.74;50.42
65013;BME280;51715;39.432;-77.518;2023-02-28T11:44:15;98217.41;;;7.02;49.42
65013;BME280;51715;39.432;-77.518;2023-02-28T11:46:50;98218.28;;;7.34;48.51
65013;BME280;51715;39.432;-77.518;2023-02-28T11:49:30;98223.80;;;7.02;48.46
65013;BME280;51715;39.432;-77.518;2023-02-28T11:52:04;98228.19;;;7.27;48.17
65013;BME280;51715;39.432;-77.518;2023-02-28T11:54:50;98238.75;;;7.62;47.95
65013;BME280;51715;39.432;-77.518;2023-02-28T11:57:32;98248.88;;;6.50;49.51
65013;BME280;51715;39.432;-77.518;2023-02-28T12:00:06;98257.20;;;6.17;50.80
65013;BME280;51715;39.432;-77.518;2023-02-28T12:02:48;98259.17;;;6.48;50.83
65013;BME280;51715;39.432;-77.518;2023-02-28T12:05:27;98254.53;;;6.76;49.59
65013;BME280;51715;39.432;-77.518;2023-02-28T12:08:05;98257.06;;;5.25;52.43
65013;BME280;51715;39.432;-77.518;2023-02-28T12:10:44;98262.03;;;5.31;53.09
65013;BME280;51715;39.432;-77.518;2023-02-28T12:13:26;98266.97;;;5.74;51.55
65013;BME280;51715;39.432;-77.518;2023-02-28T12:16:12;98267.79;;;6.54;50.66
65013;BME280;51715;39.432;-77.518;2023-02-28T12:18:58;98276.19;;;5.35;53.00
65013;BME280;51715;39.432;-77.518;2023-02-28T12:21:36;98292.42;;;5.37;52.85
65013;BME280;51715;39.432;-77.518;2023-02-28T12:24:24;98286.85;;;5.27;53.14
65013;BME280;51715;39.432;-77.518;2023-02-28T12:26:54;98297.67;;;5.47;52.73
65013;BME280;51715;39.432;-77.518;2023-02-28T12:29:25;98300.56;;;5.56;52.38
65013;BME280;51715;39.432;-77.518;2023-02-28T12:31:58;98308.39;;;6.33;51.08
65013;BME280;51715;39.432;-77.518;2023-02-28T12:34:33;98305.63;;;6.06;51.46
65013;BME280;51715;39.432;-77.518;2023-02-28T12:37:09;98323.73;;;6.71;49.86
65013;BME280;51715;39.432;-77.518;2023-02-28T12:39:43;98331.09;;;7.05;49.43
65013;BME280;51715;39.432;-77.518;2023-02-28T12:42:19;98341.08;;;7.29;48.39
65013;BME280;51715;39.432;-77.518;2023-02-28T12:44:54;98345.84;;;7.63;48.07
65013;BME280;51715;39.432;-77.518;2023-02-28T12:47:25;98355.97;;;8.00;47.59
65013;BME280;51715;39.432;-77.518;2023-02-28T12:49:57;98353.19;;;7.91;47.73
65013;BME280;51715;39.432;-77.518;2023-02-28T12:52:37;98358.31;;;8.31;47.27
65013;BME280;51715;39.432;-77.518;2023-02-28T12:55:16;98362.99;;;7.63;47.12
65013;BME280;51715;39.432;-77.518;2023-02-28T12:57:55;98356.17;;;8.07;47.34
65013;BME280;51715;39.432;-77.518;2023-02-28T13:00:32;98360.35;;;8.37;46.99
65013;BME280;51715;39.432;-77.518;2023-02-28T13:03:21;98359.54;;;8.20;46.83
65013;BME280;51715;39.432;-77.518;2023-02-28T13:06:05;98373.81;;;7.43;48.30
65013;BME280;51715;39.432;-77.518;2023-02-28T13:08:57;98368.68;;;7.94;48.47
65013;BME280;51715;39.432;-77.518;2023-02-28T13:11:31;98381.20;;;7.92;47.68
65013;BME280;51715;39.432;-77.518;2023-02-28T13:14:02;98386.77;;;8.19;47.11
65013;BME280;51715;39.432;-77.518;2023-02-28T13:16:51;98386.38;;;8.52;47.19
65013;BME280;51715;39.432;-77.518;2023-02-28T13:19:23;98394.45;;;8.43;47.01
65013;BME280;51715;39.432;-77.518;2023-02-28T13:21:53;98396.92;;;8.36;46.99